createdAt,value
2022-09-23T00:02:20.860Z,99.90
2022-09-23T00:04:50.859Z,99.90
2022-09-23T00:07:21.662Z,99.90
2022-09-23T00:09:55.420Z,99.90
2022-09-23T00:12:25.554Z,99.90
2022-09-23T00:14:55.879Z,99.90
2022-09-23T00:17:27.294Z,99.90
2022-09-23T00:19:57.867Z,99.90
2022-09-23T00:22:28.016Z,99.90
2022-09-23T00:25:00.824Z,99.90
2022-09-23T00:27:33.954Z,99.90
2022-09-23T00:30:04.914Z,99.90
2022-09-23T00:32:35.248Z,99.90
2022-09-23T00:35:06.060Z,99.90
2022-09-23T00:37:36.045Z,99.90
2022-09-23T00:40:12.404Z,99.90
2022-09-23T00:42:49.487Z,99.90
2022-09-23T00:45:20.496Z,99.90
2022-09-23T00:47:56.705Z,99.90
2022-09-23T00:50:33.879Z,99.90
2022-09-23T00:53:08.095Z,99.90
2022-09-23T00:55:46.445Z,99.90
2022-09-23T00:58:24.661Z,99.90
2022-09-23T01:00:54.673Z,99.90
2022-09-23T01:03:24.726Z,99.90
2022-09-23T01:05:55.868Z,99.90
2022-09-23T01:08:28.421Z,99.90
2022-09-23T01:11:14.441Z,99.90
2022-09-23T01:13:59.587Z,99.90
2022-09-23T01:16:39.256Z,99.90
2022-09-23T01:19:33.846Z,99.90
2022-09-23T01:22:12.451Z,99.90
2022-09-23T01:25:24.747Z,99.90
2022-09-23T01:28:20.583Z,99.90
2022-09-23T01:31:01.247Z,99.90
2022-09-23T01:33:43.207Z,99.90
2022-09-23T01:36:26.653Z,99.90
2022-09-23T01:39:06.421Z,99.90
2022-09-23T01:42:00.091Z,99.90
2022-09-23T01:44:43.058Z,99.90
2022-09-23T01:47:23.474Z,99.90
2022-09-23T01:49:59.753Z,99.90
2022-09-23T01:52:38.101Z,99.90
2022-09-23T01:55:15.421Z,99.90
2022-09-23T01:57:53.449Z,99.90
2022-09-23T02:00:27.893Z,99.90
2022-09-23T02:03:05.506Z,99.90
2022-09-23T02:05:42.262Z,99.90
2022-09-23T02:08:19.369Z,99.90
2022-09-23T02:10:56.174Z,99.90
2022-09-23T02:13:33.590Z,99.90
2022-09-23T02:16:10.501Z,99.90
2022-09-23T02:18:50.325Z,99.90
2022-09-23T02:21:25.229Z,99.90
2022-09-23T02:24:04.246Z,99.90
2022-09-23T02:26:40.846Z,99.90
2022-09-23T02:29:22.266Z,99.90
2022-09-23T02:32:02.670Z,99.90
2022-09-23T02:34:49.212Z,99.90
2022-09-23T02:37:34.909Z,99.90
2022-09-23T02:40:19.127Z,99.90
2022-09-23T02:43:04.871Z,99.90
2022-09-23T02:45:35.669Z,99.90
2022-09-23T02:48:12.415Z,99.90
2022-09-23T02:50:47.765Z,99.90
2022-09-23T02:53:18.513Z,99.90
2022-09-23T02:58:20.041Z,99.90
2022-09-23T03:01:11.085Z,99.90
2022-09-23T03:03:50.010Z,99.90
2022-09-23T03:06:32.260Z,99.90
2022-09-23T03:09:11.465Z,99.90
2022-09-23T03:11:49.784Z,99.90
2022-09-23T03:14:34.314Z,99.90
2022-09-23T03:17:11.348Z,99.90
2022-09-23T03:19:50.716Z,99.90
2022-09-23T03:22:32.823Z,99.90
2022-09-23T03:25:09.628Z,99.90
2022-09-23T03:27:42.858Z,99.90
2022-09-23T03:30:15.666Z,99.90
2022-09-23T03:32:51.214Z,99.90
2022-09-23T03:35:22.512Z,99.90
2022-09-23T03:38:03.278Z,99.90
2022-09-23T03:40:38.503Z,99.90
2022-09-23T03:43:08.729Z,99.90
2022-09-23T03:45:38.831Z,99.90
2022-09-23T03:48:09.091Z,99.90
2022-09-23T03:50:39.307Z,99.90
2022-09-23T03:53:13.999Z,99.90
2022-09-23T03:55:47.191Z,99.90
2022-09-23T03:58:17.894Z,99.90
2022-09-23T04:00:49.514Z,99.90
2022-09-23T04:03:19.471Z,99.90
2022-09-23T04:05:49.438Z,99.90
2022-09-23T04:08:21.970Z,99.90
2022-09-23T04:10:54.848Z,99.90
2022-09-23T04:13:25.395Z,99.90
2022-09-23T04:15:55.593Z,99.90
2022-09-23T04:18:25.715Z,99.90
2022-09-23T04:21:01.506Z,99.90
2022-09-23T04:23:33.989Z,99.90
2022-09-23T04:26:03.892Z,99.90
2022-09-23T04:28:34.302Z,99.90
2022-09-23T04:31:07.727Z,99.90
2022-09-23T04:33:38.465Z,99.90
2022-09-23T04:36:09.150Z,99.90
2022-09-23T04:38:41.999Z,99.90
2022-09-23T04:41:12.228Z,99.90
2022-09-23T04:43:42.730Z,99.90
2022-09-23T04:46:15.845Z,99.90
2022-09-23T04:48:46.129Z,99.90
2022-09-23T04:51:19.387Z,99.90
2022-09-23T04:53:54.985Z,99.90
2022-09-23T04:56:28.086Z,99.90
2022-09-23T04:59:01.697Z,99.90
2022-09-23T05:01:35.179Z,99.90
2022-09-23T05:04:08.658Z,99.90
2022-09-23T05:06:39.544Z,99.90
2022-09-23T05:09:16.643Z,99.90
2022-09-23T05:11:47.387Z,99.90
2022-09-23T05:14:17.365Z,99.90
2022-09-23T05:16:47.308Z,99.90
2022-09-23T05:19:17.279Z,99.90
2022-09-23T05:21:47.208Z,99.90
2022-09-23T05:24:19.873Z,99.90
2022-09-23T05:26:49.794Z,99.90
2022-09-23T05:29:19.786Z,99.90
2022-09-23T05:31:49.836Z,99.90
2022-09-23T05:34:20.055Z,99.90
2022-09-23T05:36:50.239Z,99.90
2022-09-23T05:39:22.783Z,99.90
2022-09-23T05:41:53.886Z,99.90
2022-09-23T05:44:23.925Z,99.90
2022-09-23T05:46:53.881Z,99.90
2022-09-23T05:49:37.673Z,99.90
2022-09-23T05:52:13.871Z,99.90
2022-09-23T05:54:46.344Z,99.90
2022-09-23T05:57:16.317Z,99.90
2022-09-23T05:59:47.763Z,99.90
2022-09-23T06:02:17.839Z,99.90
2022-09-23T06:04:47.777Z,99.90
2022-09-23T06:07:17.771Z,99.90
2022-09-23T06:09:50.581Z,99.90
2022-09-23T06:12:20.685Z,99.90
2022-09-23T06:14:50.778Z,99.90
2022-09-23T06:17:20.847Z,99.90
2022-09-23T06:19:50.735Z,99.90
2022-09-23T06:22:20.673Z,99.90
2022-09-23T06:24:53.170Z,99.90
2022-09-23T06:27:23.205Z,99.90
2022-09-23T06:29:53.489Z,99.90
2022-09-23T06:32:23.515Z,99.90
2022-09-23T06:34:53.713Z,99.90
2022-09-23T06:37:24.327Z,99.90
2022-09-23T06:39:56.961Z,99.90
2022-09-23T06:42:27.010Z,99.90
2022-09-23T06:44:57.102Z,99.90
2022-09-23T06:47:27.189Z,99.90
2022-09-23T06:49:57.280Z,99.90
2022-09-23T06:52:28.736Z,99.90
2022-09-23T06:55:01.502Z,99.90
2022-09-23T06:57:32.936Z,99.90
2022-09-23T07:00:03.324Z,99.90
2022-09-23T07:02:33.435Z,99.10
2022-09-23T07:05:03.955Z,97.10
2022-09-23T07:07:35.982Z,96.00
2022-09-23T07:10:10.553Z,95.90
2022-09-23T07:12:40.938Z,96.70
2022-09-23T07:15:12.731Z,97.30
2022-09-23T07:17:45.530Z,97.30
2022-09-23T07:20:18.004Z,96.30
2022-09-23T07:22:52.245Z,96.30
2022-09-23T07:25:25.874Z,96.00
2022-09-23T07:27:56.159Z,95.20
2022-09-23T07:30:26.170Z,95.80
2022-09-23T07:32:56.419Z,94.90
2022-09-23T07:35:28.183Z,93.00
2022-09-23T07:37:58.262Z,91.60
2022-09-23T07:40:30.932Z,91.60
2022-09-23T07:43:02.133Z,91.00
2022-09-23T07:45:33.287Z,91.10
2022-09-23T07:48:04.261Z,86.40
2022-09-23T07:50:34.249Z,82.60
2022-09-23T07:53:05.182Z,80.60
2022-09-23T07:55:38.152Z,78.00
2022-09-23T07:58:08.078Z,77.40
2022-09-23T08:00:38.024Z,75.80
2022-09-23T08:03:08.836Z,76.20
2022-09-23T08:05:38.864Z,78.00
2022-09-23T08:08:09.719Z,74.00
2022-09-23T08:10:42.788Z,75.40
2022-09-23T08:13:12.768Z,74.00
2022-09-23T08:15:44.356Z,74.70
2022-09-23T08:18:14.396Z,74.60
2022-09-23T08:20:48.079Z,77.80
2022-09-23T08:23:20.050Z,79.00
2022-09-23T08:26:00.143Z,80.30
2022-09-23T08:28:31.544Z,83.00
2022-09-23T08:31:01.665Z,84.10
2022-09-23T08:33:31.874Z,86.20
2022-09-23T08:36:04.856Z,87.50
2022-09-23T08:38:34.951Z,89.00
2022-09-23T08:41:19.971Z,89.00
2022-09-23T08:43:56.146Z,89.10
2022-09-23T08:46:32.608Z,90.10
2022-09-23T08:49:04.024Z,89.80
2022-09-23T08:51:42.204Z,88.20
2022-09-23T08:54:13.857Z,88.30
2022-09-23T08:56:52.302Z,86.10
2022-09-23T08:59:30.713Z,86.40
2022-09-23T09:02:08.248Z,85.70
2022-09-23T09:04:45.732Z,84.80
2022-09-23T09:07:39.163Z,84.20
2022-09-23T09:10:20.420Z,83.30
2022-09-23T09:13:02.848Z,82.70
2022-09-23T09:15:32.978Z,83.00
2022-09-23T09:18:08.023Z,80.80
2022-09-23T09:20:59.040Z,79.40
2022-09-23T09:23:40.990Z,78.80
2022-09-23T09:26:19.259Z,77.40
2022-09-23T09:29:02.551Z,78.20
2022-09-23T09:31:46.206Z,77.60
2022-09-23T09:34:29.586Z,75.60
2022-09-23T09:37:07.710Z,76.90
2022-09-23T09:39:39.059Z,77.00
2022-09-23T09:42:10.507Z,77.50
2022-09-23T09:44:55.495Z,78.90
2022-09-23T09:47:49.551Z,78.50
2022-09-23T09:50:22.665Z,79.00
2022-09-23T09:52:56.243Z,78.20
2022-09-23T09:55:31.623Z,76.60
2022-09-23T09:58:08.165Z,76.30
2022-09-23T10:00:46.186Z,74.60
2022-09-23T10:03:37.062Z,74.30
2022-09-23T10:06:19.829Z,73.60
2022-09-23T10:09:14.217Z,70.60
2022-09-23T10:11:44.994Z,70.70
2022-09-23T10:14:19.723Z,69.60
2022-09-23T10:19:41.306Z,63.40
2022-09-23T10:22:24.039Z,63.10
2022-09-23T10:24:57.889Z,64.00
2022-09-23T10:27:34.622Z,63.60
2022-09-23T10:30:07.163Z,61.80
2022-09-23T10:32:46.756Z,60.40
2022-09-23T10:35:21.866Z,60.60
2022-09-23T10:37:55.912Z,62.30
2022-09-23T10:40:47.069Z,63.00
2022-09-23T10:43:39.906Z,61.50
2022-09-23T10:46:32.372Z,61.40
2022-09-23T10:49:43.269Z,58.60
2022-09-23T10:52:41.212Z,57.80
2022-09-23T10:55:36.617Z,56.40
2022-09-23T10:58:30.668Z,55.80
2022-09-23T11:01:21.155Z,54.50
2022-09-23T11:04:38.967Z,54.00
2022-09-23T11:07:25.140Z,54.80
2022-09-23T11:10:47.923Z,56.00
2022-09-23T11:16:58.141Z,59.20
2022-09-23T11:19:56.998Z,60.30
2022-09-23T11:22:53.288Z,60.10
2022-09-23T11:25:46.698Z,58.10
2022-09-23T11:28:50.685Z,56.70
2022-09-23T11:31:39.931Z,57.70
2022-09-23T11:34:38.766Z,59.30
2022-09-23T11:37:15.386Z,59.40
2022-09-23T11:39:50.425Z,58.40
2022-09-23T11:42:28.928Z,57.20
2022-09-23T11:45:05.044Z,56.90
2022-09-23T11:47:46.871Z,56.70
2022-09-23T11:53:10.717Z,57.40
2022-09-23T11:55:57.337Z,59.70
2022-09-23T11:59:36.795Z,58.70
2022-09-23T12:08:25.069Z,55.70
2022-09-23T12:11:08.744Z,56.10
2022-09-23T12:17:07.160Z,55.50
2022-09-23T12:20:13.243Z,56.00
2022-09-23T12:23:04.795Z,54.50
2022-09-23T12:28:26.634Z,53.60
2022-09-23T12:31:01.704Z,54.00
2022-09-23T12:36:15.479Z,53.70
2022-09-23T12:41:51.858Z,56.60
2022-09-23T12:44:37.672Z,58.60
2022-09-23T12:47:42.661Z,61.40
2022-09-23T12:50:55.188Z,64.00
2022-09-23T12:54:01.848Z,65.50
2022-09-23T12:57:12.252Z,66.40
2022-09-23T13:00:16.220Z,67.10
2022-09-23T13:03:10.088Z,66.60
2022-09-23T13:11:25.495Z,68.70
2022-09-23T13:13:59.735Z,68.60
2022-09-23T13:16:37.047Z,69.10
2022-09-23T13:22:11.193Z,67.80
2022-09-23T13:24:46.031Z,66.40
2022-09-23T13:30:27.053Z,66.40
2022-09-23T13:33:08.890Z,66.30
2022-09-23T13:35:45.437Z,66.70
2022-09-23T13:38:26.276Z,68.00
2022-09-23T13:43:46.304Z,68.50
2022-09-23T13:48:59.427Z,68.80
2022-09-23T13:51:33.203Z,70.50
2022-09-23T13:54:07.242Z,71.70
2022-09-23T13:56:38.017Z,71.70
2022-09-23T14:02:16.901Z,72.10
2022-09-23T14:04:47.497Z,72.80
2022-09-23T14:07:21.594Z,72.40
2022-09-23T14:09:54.960Z,72.70
2022-09-23T14:12:25.460Z,71.20
2022-09-23T14:14:56.361Z,70.40
2022-09-23T14:17:29.627Z,70.40
2022-09-23T14:19:59.713Z,70.30
2022-09-23T14:22:32.550Z,70.40
2022-09-23T14:25:03.440Z,69.50
2022-09-23T14:27:37.497Z,70.90
2022-09-23T14:30:09.713Z,72.60
2022-09-23T14:35:29.753Z,72.40
2022-09-23T14:41:14.666Z,73.60
2022-09-23T14:47:09.026Z,77.50
2022-09-23T14:50:02.264Z,77.60
2022-09-23T14:52:32.350Z,77.80
2022-09-23T14:55:03.846Z,79.30
2022-09-23T14:57:34.414Z,80.70
2022-09-23T15:00:18.691Z,80.20
2022-09-23T15:05:50.926Z,80.30
2022-09-23T15:11:08.361Z,81.10
2022-09-23T15:13:44.549Z,81.20
2022-09-23T15:16:18.000Z,82.20
2022-09-23T15:18:57.396Z,82.30
2022-09-23T15:24:42.800Z,82.70
2022-09-23T15:27:40.893Z,83.60
2022-09-23T15:30:19.327Z,83.70
2022-09-23T15:32:50.310Z,84.80
2022-09-23T15:35:25.687Z,86.00
2022-09-23T15:38:02.779Z,87.20
2022-09-23T15:40:40.513Z,87.10
2022-09-23T15:43:21.417Z,88.50
2022-09-23T15:45:55.944Z,88.50
2022-09-23T15:51:12.706Z,89.00
2022-09-23T15:56:27.405Z,90.80
2022-09-23T15:58:57.411Z,91.00
2022-09-23T16:01:31.523Z,91.50
2022-09-23T16:04:03.634Z,92.10
2022-09-23T16:06:36.088Z,92.90
2022-09-23T16:09:06.645Z,93.70
2022-09-23T16:11:39.688Z,93.80
2022-09-23T16:14:12.275Z,93.50
2022-09-23T16:16:42.462Z,93.70
2022-09-23T16:19:12.713Z,94.70
2022-09-23T16:21:44.833Z,95.40
2022-09-23T16:24:22.531Z,95.90
2022-09-23T16:27:00.766Z,96.20
2022-09-23T16:29:30.746Z,96.70
2022-09-23T16:34:45.153Z,97.40
2022-09-23T16:37:19.507Z,97.70
2022-09-23T16:39:51.583Z,98.70
2022-09-23T16:42:22.347Z,99.10
2022-09-23T16:44:52.439Z,99.70
2022-09-23T16:47:22.831Z,99.90
2022-09-23T16:49:55.424Z,99.90
2022-09-23T16:52:25.376Z,99.90
2022-09-23T16:54:55.388Z,99.90
2022-09-23T16:57:25.373Z,99.90
2022-09-23T17:00:07.961Z,99.90
2022-09-23T17:05:20.362Z,99.90
2022-09-23T17:07:50.327Z,99.90
2022-09-23T17:10:21.474Z,99.90
2022-09-23T17:12:52.595Z,99.90
2022-09-23T17:15:22.655Z,99.90
2022-09-23T17:17:52.626Z,99.90
2022-09-23T17:20:25.089Z,99.90
2022-09-23T17:22:56.623Z,99.90
2022-09-23T17:25:26.573Z,99.90
2022-09-23T17:27:57.855Z,99.90
2022-09-23T17:30:28.816Z,99.90
2022-09-23T17:32:58.777Z,99.90
2022-09-23T17:35:31.278Z,99.90
2022-09-23T17:38:01.218Z,99.90
2022-09-23T17:40:31.334Z,99.90
2022-09-23T17:43:01.613Z,99.90
2022-09-23T17:45:31.613Z,99.90
2022-09-23T17:48:01.722Z,99.90
2022-09-23T17:50:34.227Z,99.90
2022-09-23T17:53:05.208Z,99.90
2022-09-23T17:55:35.164Z,99.90
2022-09-23T17:58:05.238Z,99.90
2022-09-23T18:00:35.281Z,99.90
2022-09-23T18:03:05.272Z,99.90
2022-09-23T18:05:37.769Z,99.90
2022-09-23T18:08:07.990Z,99.90
2022-09-23T18:10:37.990Z,99.90
2022-09-23T18:13:08.092Z,99.90
2022-09-23T18:15:39.313Z,99.90
2022-09-23T18:18:09.919Z,99.90
2022-09-23T18:20:42.439Z,99.90
2022-09-23T18:23:13.639Z,99.90
2022-09-23T18:25:43.749Z,99.90
2022-09-23T18:28:13.627Z,99.90
2022-09-23T18:30:43.615Z,99.90
2022-09-23T18:33:15.302Z,99.90
2022-09-23T18:35:47.934Z,99.90
2022-09-23T18:38:18.135Z,99.90
2022-09-23T18:40:56.862Z,99.90
2022-09-23T18:43:33.005Z,99.90
2022-09-23T18:51:29.192Z,99.90
2022-09-23T18:54:00.237Z,99.90
2022-09-23T18:56:34.458Z,99.90
2022-09-23T18:59:05.707Z,99.90
2022-09-23T19:01:36.506Z,99.90
2022-09-23T19:04:07.677Z,99.90
2022-09-23T19:06:40.264Z,99.90
2022-09-23T19:09:12.059Z,99.90
2022-09-23T19:11:42.188Z,99.90
2022-09-23T19:14:14.508Z,99.90
2022-09-23T19:17:00.137Z,99.90
2022-09-23T19:19:30.131Z,99.90
2022-09-23T19:22:19.107Z,99.90
2022-09-23T19:27:31.221Z,99.90
2022-09-23T19:30:01.686Z,99.90
2022-09-23T19:35:16.283Z,99.90
2022-09-23T19:37:46.249Z,99.90
2022-09-23T19:40:16.517Z,99.90
2022-09-23T19:42:46.683Z,99.90
2022-09-23T19:45:17.324Z,99.90
2022-09-23T19:47:47.321Z,99.90
2022-09-23T19:50:21.801Z,99.90
2022-09-23T19:52:52.145Z,99.90
2022-09-23T19:55:22.699Z,99.90
2022-09-23T19:57:52.620Z,99.90
2022-09-23T20:00:23.686Z,99.90
2022-09-23T20:02:53.713Z,99.90
2022-09-23T20:05:28.459Z,99.90
2022-09-23T20:07:59.066Z,99.90
2022-09-23T20:10:29.163Z,99.90
2022-09-23T20:12:59.510Z,99.90
2022-09-23T20:15:29.633Z,99.90
2022-09-23T20:17:59.576Z,99.90
2022-09-23T20:20:32.434Z,99.90
2022-09-23T20:23:02.332Z,99.90
2022-09-23T20:28:39.380Z,99.90
2022-09-23T20:31:09.371Z,99.90
2022-09-23T20:33:41.543Z,99.90
2022-09-23T20:36:13.192Z,99.90
2022-09-23T20:38:43.268Z,99.90
2022-09-23T20:41:14.673Z,99.90
2022-09-23T20:43:48.250Z,99.90
2022-09-23T20:46:18.201Z,99.90
2022-09-23T20:48:49.809Z,99.90
2022-09-23T20:51:20.485Z,99.90
2022-09-23T20:53:51.982Z,99.90
2022-09-23T20:56:22.602Z,99.90
2022-09-23T20:58:55.333Z,99.90
2022-09-23T21:01:27.273Z,99.90
2022-09-23T21:03:57.370Z,99.90
2022-09-23T21:06:27.834Z,99.90
2022-09-23T21:08:58.028Z,99.90
2022-09-23T21:11:29.193Z,99.90
2022-09-23T21:14:02.171Z,99.90
2022-09-23T21:16:33.069Z,99.90
2022-09-23T21:19:03.286Z,99.90
2022-09-23T21:21:33.327Z,99.90
2022-09-23T21:24:33.080Z,99.90
2022-09-23T21:26:54.471Z,99.90
2022-09-23T21:29:27.731Z,99.90
2022-09-23T21:34:52.621Z,99.90
2022-09-23T21:37:22.543Z,99.90
2022-09-23T21:40:13.223Z,99.90
2022-09-23T21:42:43.234Z,99.90
2022-09-23T21:45:14.138Z,99.90
2022-09-23T21:47:44.230Z,99.90
2022-09-23T21:50:17.246Z,99.90
2022-09-23T21:52:52.349Z,99.90
2022-09-23T21:55:22.309Z,99.90
2022-09-23T21:57:52.285Z,99.90
2022-09-23T22:00:23.549Z,99.90
2022-09-23T22:02:54.171Z,99.90
2022-09-23T22:05:26.915Z,99.90
2022-09-23T22:07:56.861Z,99.90
2022-09-23T22:10:26.827Z,99.90
2022-09-23T22:12:56.828Z,99.90
2022-09-23T22:15:26.841Z,99.90
2022-09-23T22:17:57.588Z,99.90
2022-09-23T22:20:31.242Z,99.90
2022-09-23T22:23:01.565Z,99.90
2022-09-23T22:25:33.251Z,99.90
2022-09-23T22:31:16.063Z,99.90
2022-09-23T22:33:46.084Z,99.90
2022-09-23T22:36:16.055Z,99.90
2022-09-23T22:38:45.948Z,99.90
2022-09-23T22:41:16.168Z,99.90
2022-09-23T22:43:46.348Z,99.90
2022-09-23T22:46:21.947Z,99.90
2022-09-23T22:48:53.447Z,99.90
2022-09-23T22:51:24.435Z,99.90
2022-09-23T22:53:55.923Z,99.90
2022-09-23T22:56:25.946Z,99.90
2022-09-23T22:58:56.947Z,99.90
2022-09-23T23:01:30.027Z,99.90
2022-09-23T23:04:01.801Z,99.90
2022-09-23T23:06:35.978Z,99.90
2022-09-23T23:09:09.983Z,99.90
2022-09-23T23:11:42.460Z,99.90
2022-09-23T23:14:13.508Z,99.90
2022-09-23T23:16:47.243Z,99.90
2022-09-23T23:19:19.561Z,99.90
2022-09-23T23:21:49.561Z,99.90
2022-09-23T23:24:23.483Z,99.90
2022-09-23T23:26:54.977Z,99.90
2022-09-23T23:29:26.021Z,99.90
2022-09-23T23:31:58.576Z,99.90
2022-09-23T23:34:28.579Z,99.90
2022-09-23T23:36:58.574Z,99.90
2022-09-23T23:39:29.233Z,99.90
2022-09-23T23:42:01.036Z,99.90
2022-09-23T23:44:31.169Z,99.90
2022-09-23T23:47:04.590Z,99.90
2022-09-23T23:49:34.646Z,99.90
2022-09-23T23:52:05.147Z,99.90
2022-09-23T23:54:35.259Z,99.90
2022-09-23T23:57:05.207Z,99.90
2022-09-23T23:59:35.174Z,99.90
